| time (UTC) | temp C | wind direction | speed KPH | gust KPH | rain 1hr cm | rain 24hr cm | rain mn cm | humidity % | barometer mb |
| 20260510190012 | 19 | 227 | 1.6 | 6.4 | 0.00 | 0.00 | 0.00 | 74 | 1013.7 |
| 20260510185728 | 19 | 225 | 1.6 | 6.4 | 0.00 | 0.00 | 0.00 | 74 | 1013.6 |
| 20260510185001 | 19 | 209 | 1.6 | 6.4 | 0.00 | 0.00 | 0.00 | 73 | 1013.6 |
| 20260510184454 | 19 | 221 | 3.2 | 6.4 | 0.00 | 0.00 | 0.00 | 73 | 1013.5 |
| 20260510184441 | 20 | 212 | 3.2 | 6.4 | 0.00 | 0.00 | 0.00 | 73 | 1013.5 |
| 20260510183937 | 20 | 212 | 1.6 | 4.8 | 0.00 | 0.00 | 0.00 | 73 | 1013.4 |
| 20260510183154 | 20 | 215 | 1.6 | 4.8 | 0.00 | 0.00 | 0.00 | 71 | 1013.5 |
| 20260510182431 | 20 | 207 | 0.0 | 3.2 | 0.00 | 0.00 | 0.00 | 70 | 1013.5 |
| 20260510182144 | 20 | 208 | 0.0 | 1.6 | 0.00 | 0.00 | 0.00 | 70 | 1013.5 |
| 20260510181639 | 20 | 208 | 0.0 | 4.8 | 0.00 | 0.00 | 0.00 | 69 | 1013.5 |
| 20260510180912 | 20 | 208 | 1.6 | 4.8 | 0.00 | 0.00 | 0.00 | 68 | 1013.5 |
| 20260510180407 | 20 | 158 | 0.0 | 1.6 | 0.00 | 0.00 | 0.00 | 68 | 1013.4 |
| 20260510175901 | 20 | 155 | 0.0 | 0.0 | 0.00 | 0.00 | 0.00 | 68 | 1013.4 |
| 20260510175401 | 20 | 155 | 0.0 | 0.0 | 0.00 | 0.00 | 0.00 | 67 | 1013.4 |
| 20260510174901 | 20 | 155 | 0.0 | 1.6 | 0.00 | 0.00 | 0.00 | 66 | 1013.4 |
| 20260510174402 | 20 | 155 | 0.0 | 1.6 | 0.00 | 0.00 | 0.00 | 65 | 1013.3 |
| 20260510173859 | 21 | 155 | 0.0 | 1.6 | 0.00 | 0.00 | 0.00 | 65 | 1013.3 |
| 20260510173357 | 21 | 155 | 1.6 | 4.8 | 0.00 | 0.00 | 0.00 | 64 | 1013.3 |
| 20260510173333 | 21 | 155 | 1.6 | 6.4 | 0.00 | 0.00 | 0.00 | 64 | 1013.3 |
| 20260510172357 | 21 | 191 | 1.6 | 6.4 | 0.00 | 0.00 | 0.00 | 63 | 1013.3 |
| 20260510172121 | 21 | 144 | 1.6 | 6.4 | 0.00 | 0.00 | 0.00 | 62 | 1013.3 |
| 20260510171358 | 22 | 196 | 1.6 | 4.8 | 0.00 | 0.00 | 0.00 | 61 | 1013.2 |
| 20260510170857 | 22 | 209 | 3.2 | 8.0 | 0.00 | 0.00 | 0.00 | 61 | 1013.3 |
| 20260510170358 | 22 | 194 | 3.2 | 8.0 | 0.00 | 0.00 | 0.00 | 60 | 1013.3 |
| 20260510165857 | 22 | 149 | 3.2 | 6.4 | 0.00 | 0.00 | 0.00 | 60 | 1013.3 |
| 20260510165359 | 22 | 140 | 3.2 | 11.3 | 0.00 | 0.00 | 0.00 | 60 | 1013.3 |
| 20260510164857 | 22 | 139 | 4.8 | 11.3 | 0.00 | 0.00 | 0.00 | 60 | 1013.3 |
| 20260510164358 | 22 | 137 | 4.8 | 11.3 | 0.00 | 0.00 | 0.00 | 61 | 1013.3 |
| 20260510164117 | 22 | 144 | 4.8 | 12.9 | 0.00 | 0.00 | 0.00 | 61 | 1013.2 |
| 20260510163358 | 22 | 221 | 3.2 | 12.9 | 0.00 | 0.00 | 0.00 | 61 | 1013.2 |
| 20260510162851 | 22 | 219 | 3.2 | 8.0 | 0.00 | 0.00 | 0.00 | 63 | 1013.3 |
| 20260510162345 | 22 | 205 | 3.2 | 9.7 | 0.00 | 0.00 | 0.00 | 63 | 1013.3 |
| 20260510161838 | 21 | 223 | 4.8 | 11.3 | 0.00 | 0.00 | 0.00 | 62 | 1013.3 |
| 20260510161332 | 22 | 202 | 6.4 | 11.3 | 0.00 | 0.00 | 0.00 | 61 | 1013.3 |
| 20260510160827 | 22 | 222 | 6.4 | 11.3 | 0.00 | 0.00 | 0.00 | 61 | 1013.4 |
| 20260510160321 | 22 | 129 | 4.8 | 9.7 | 0.00 | 0.00 | 0.00 | 62 | 1013.4 |
| 20260510155814 | 22 | 191 | 6.4 | 14.5 | 0.00 | 0.00 | 0.00 | 62 | 1013.3 |
| 20260510155308 | 22 | 176 | 6.4 | 14.5 | 0.00 | 0.00 | 0.00 | 62 | 1013.3 |
| 20260510154802 | 22 | 219 | 8.0 | 14.5 | 0.00 | 0.00 | 0.00 | 62 | 1013.3 |
| 20260510154257 | 22 | 212 | 8.0 | 14.5 | 0.00 | 0.00 | 0.00 | 61 | 1013.3 |
| 20260510153751 | 23 | 233 | 6.4 | 14.5 | 0.00 | 0.00 | 0.00 | 60 | 1013.3 |
| 20260510153245 | 23 | 256 | 4.8 | 11.3 | 0.00 | 0.00 | 0.00 | 59 | 1013.2 |
| 20260510152740 | 22 | 203 | 6.4 | 12.9 | 0.00 | 0.00 | 0.00 | 61 | 1013.3 |
| 20260510152233 | 22 | 225 | 4.8 | 12.9 | 0.00 | 0.00 | 0.00 | 62 | 1013.4 |
| 20260510151733 | 22 | 134 | 4.8 | 9.7 | 0.00 | 0.00 | 0.00 | 65 | 1013.4 |
| 20260510151231 | 22 | 139 | 4.8 | 9.7 | 0.00 | 0.00 | 0.00 | 65 | 1013.4 |
| 20260510150731 | 22 | 157 | 4.8 | 12.9 | 0.00 | 0.00 | 0.00 | 65 | 1013.3 |
| 20260510150721 | 22 | 189 | 4.8 | 12.9 | 0.00 | 0.00 | 0.00 | 64 | 1013.3 |
| 20260510145731 | 22 | 123 | 4.8 | 12.9 | 0.00 | 0.00 | 0.00 | 64 | 1013.2 |
| 20260510145227 | 22 | 148 | 6.4 | 16.1 | 0.00 | 0.00 | 0.00 | 63 | 1013.4 |
| 20260510144729 | 22 | 169 | 4.8 | 16.1 | 0.00 | 0.00 | 0.00 | 63 | 1013.5 |
| 20260510144227 | 23 | 158 | 4.8 | 12.9 | 0.00 | 0.00 | 0.00 | 64 | 1013.4 |
| 20260510143727 | 23 | 205 | 4.8 | 11.3 | 0.00 | 0.00 | 0.00 | 65 | 1013.4 |
| 20260510143225 | 23 | 140 | 4.8 | 11.3 | 0.00 | 0.00 | 0.00 | 65 | 1013.4 |
| 20260510142725 | 22 | 241 | 4.8 | 11.3 | 0.00 | 0.00 | 0.00 | 66 | 1013.4 |
| 20260510142226 | 22 | 191 | 4.8 | 12.9 | 0.00 | 0.00 | 0.00 | 66 | 1013.3 |
| 20260510141725 | 22 | 115 | 6.4 | 16.1 | 0.00 | 0.00 | 0.00 | 67 | 1013.2 |
| 20260510141705 | 22 | 197 | 6.4 | 16.1 | 0.00 | 0.00 | 0.00 | 67 | 1013.3 |
| 20260510141232 | 22 | 197 | 6.4 | 16.1 | 0.00 | 0.00 | 0.00 | 67 | 1013.3 |
| 20260510140725 | 22 | 203 | 6.4 | 14.5 | 0.00 | 0.00 | 0.00 | 68 | 1013.3 |
| 20260510140224 | 22 | 214 | 8.0 | 22.5 | 0.00 | 0.00 | 0.00 | 69 | 1013.3 |
| 20260510135725 | 22 | 259 | 9.7 | 22.5 | 0.00 | 0.00 | 0.00 | 69 | 1013.4 |
| 20260510135447 | 22 | 189 | 9.7 | 20.9 | 0.00 | 0.00 | 0.00 | 68 | 1013.5 |
| 20260510134714 | 22 | 231 | 9.7 | 20.9 | 0.00 | 0.00 | 0.00 | 67 | 1013.5 |
| 20260510134206 | 22 | 172 | 8.0 | 17.7 | 0.00 | 0.00 | 0.00 | 65 | 1013.5 |
| 20260510133701 | 23 | 236 | 6.4 | 17.7 | 0.00 | 0.00 | 0.00 | 64 | 1013.5 |
| 20260510133159 | 24 | 209 | 4.8 | 12.9 | 0.00 | 0.00 | 0.00 | 61 | 1013.5 |
| 20260510132658 | 24 | 261 | 4.8 | 11.3 | 0.00 | 0.00 | 0.00 | 60 | 1013.5 |
| 20260510132200 | 24 | 199 | 4.8 | 9.7 | 0.00 | 0.00 | 0.00 | 57 | 1013.5 |
| 20260510131658 | 24 | 228 | 4.8 | 6.4 | 0.00 | 0.00 | 0.00 | 57 | 1013.5 |
| 20260510131158 | 24 | 214 | 3.2 | 6.4 | 0.00 | 0.00 | 0.00 | 57 | 1013.5 |
| 20260510130659 | 24 | 212 | 3.2 | 6.4 | 0.00 | 0.00 | 0.00 | 57 | 1013.7 |
| 20260510130209 | 24 | 214 | 3.2 | 9.7 | 0.00 | 0.00 | 0.00 | 57 | 1013.7 |
| 20260510125924 | 24 | 186 | 4.8 | 9.7 | 0.00 | 0.00 | 0.00 | 57 | 1013.8 |
| 20260510125200 | 24 | 198 | 4.8 | 9.7 | 0.00 | 0.00 | 0.00 | 55 | 1013.8 |
| 20260510124659 | 24 | 212 | 3.2 | 6.4 | 0.00 | 0.00 | 0.00 | 54 | 1013.9 |
| 20260510124159 | 24 | 211 | 4.8 | 9.7 | 0.00 | 0.00 | 0.00 | 54 | 1014.0 |
| 20260510124131 | 25 | 256 | 3.2 | 9.7 | 0.00 | 0.00 | 0.00 | 54 | 1014.2 |
| 20260510123914 | 25 | 256 | 3.2 | 9.7 | 0.00 | 0.00 | 0.00 | 54 | 1014.2 |
| 20260510123753 | 24 | 214 | 4.8 | 9.7 | 0.00 | 0.00 | 0.00 | 54 | 1014.1 |
| 20260510123426 | 25 | 256 | 3.2 | 9.7 | 0.00 | 0.00 | 0.00 | 54 | 1014.2 |
| 20260510123201 | 25 | 256 | 3.2 | 9.7 | 0.00 | 0.00 | 0.00 | 54 | 1014.2 |
| 20260510123149 | 25 | 212 | 4.8 | 9.7 | 0.00 | 0.00 | 0.00 | 56 | 1014.3 |
| 20260510122154 | 24 | 204 | 4.8 | 9.7 | 0.00 | 0.00 | 0.00 | 55 | 1014.4 |
| 20260510121654 | 24 | 212 | 4.8 | 9.7 | 0.00 | 0.00 | 0.00 | 56 | 1014.6 |
| 20260510121154 | 24 | 204 | 4.8 | 9.7 | 0.00 | 0.00 | 0.00 | 56 | 1014.5 |
| 20260510120655 | 24 | 212 | 6.4 | 11.3 | 0.00 | 0.00 | 0.00 | 56 | 1014.6 |
| 20260510120419 | 24 | 223 | 6.4 | 11.3 | 0.00 | 0.00 | 0.00 | 55 | 1014.7 |
| 20260510115655 | 25 | 221 | 4.8 | 11.3 | 0.00 | 0.00 | 0.00 | 53 | 1014.8 |
| 20260510115155 | 25 | 207 | 4.8 | 11.3 | 0.00 | 0.00 | 0.00 | 54 | 1014.9 |
| 20260510114655 | 25 | 258 | 6.4 | 14.5 | 0.00 | 0.00 | 0.00 | 56 | 1014.9 |
| 20260510114413 | 24 | 207 | 6.4 | 14.5 | 0.00 | 0.00 | 0.00 | 54 | 1014.9 |
| 20260510113654 | 25 | 199 | 4.8 | 11.3 | 0.00 | 0.00 | 0.00 | 55 | 1014.9 |
| 20260510113154 | 25 | 202 | 3.2 | 11.3 | 0.00 | 0.00 | 0.00 | 54 | 1014.9 |
| 20260510112655 | 25 | 205 | 3.2 | 8.0 | 0.00 | 0.00 | 0.00 | 53 | 1014.9 |
| 20260510112154 | 25 | 246 | 3.2 | 8.0 | 0.00 | 0.00 | 0.00 | 54 | 1014.9 |
| 20260510111920 | 25 | 205 | 3.2 | 8.0 | 0.00 | 0.00 | 0.00 | 54 | 1014.9 |
| 20260510111154 | 25 | 183 | 3.2 | 8.0 | 0.00 | 0.00 | 0.00 | 55 | 1014.9 |
| 20260510110914 | 25 | 240 | 1.6 | 6.4 | 0.00 | 0.00 | 0.00 | 56 | 1015.0 |
| 20260510110411 | 24 | 224 | 3.2 | 8.0 | 0.00 | 0.00 | 0.00 | 58 | 1015.1 |
| 20260510105645 | 23 | 237 | 4.8 | 8.0 | 0.00 | 0.00 | 0.00 | 59 | 1015.1 |
| 20260510105140 | 23 | 222 | 4.8 | 9.7 | 0.00 | 0.00 | 0.00 | 60 | 1015.1 |
| 20260510104636 | 23 | 241 | 6.4 | 11.3 | 0.00 | 0.00 | 0.00 | 61 | 1015.2 |
| 20260510104128 | 23 | 276 | 9.7 | 12.9 | 0.00 | 0.00 | 0.00 | 60 | 1015.2 |
| 20260510103622 | 23 | 263 | 8.0 | 12.9 | 0.00 | 0.00 | 0.00 | 57 | 1015.3 |
| 20260510103115 | 23 | 245 | 4.8 | 12.9 | 0.00 | 0.00 | 0.00 | 59 | 1015.3 |
| 20260510102609 | 23 | 288 | 6.4 | 12.9 | 0.00 | 0.00 | 0.00 | 60 | 1015.4 |
| 20260510102329 | 23 | 259 | 9.7 | 17.7 | 0.00 | 0.00 | 0.00 | 62 | 1015.5 |
| 20260510101605 | 23 | 251 | 9.7 | 17.7 | 0.00 | 0.00 | 0.00 | 60 | 1015.5 |
| 20260510101102 | 23 | 268 | 8.0 | 14.5 | 0.00 | 0.00 | 0.00 | 58 | 1015.5 |
| 20260510100826 | 23 | 318 | 8.0 | 11.3 | 0.00 | 0.00 | 0.00 | 59 | 1015.4 |
| 20260510095602 | 23 | 209 | 6.4 | 9.7 | 0.00 | 0.00 | 0.00 | 60 | 1015.4 |
| 20260510095100 | 23 | 250 | 6.4 | 11.3 | 0.00 | 0.00 | 0.00 | 58 | 1015.3 |
| 20260510094601 | 23 | 303 | 6.4 | 11.3 | 0.00 | 0.00 | 0.00 | 61 | 1015.3 |
| 20260510094101 | 23 | 259 | 6.4 | 11.3 | 0.00 | 0.00 | 0.00 | 59 | 1015.5 |
| 20260510093601 | 23 | 268 | 6.4 | 11.3 | 0.00 | 0.00 | 0.00 | 59 | 1015.5 |
| 20260510093100 | 22 | 269 | 6.4 | 11.3 | 0.00 | 0.00 | 0.00 | 62 | 1015.6 |
| 20260510092559 | 22 | 255 | 4.8 | 9.7 | 0.00 | 0.00 | 0.00 | 64 | 1015.6 |
| 20260510092057 | 22 | 250 | 4.8 | 9.7 | 0.00 | 0.00 | 0.00 | 64 | 1015.7 |
| 20260510091556 | 22 | 236 | 6.4 | 11.3 | 0.00 | 0.00 | 0.00 | 64 | 1015.7 |
| 20260510091057 | 22 | 259 | 6.4 | 11.3 | 0.00 | 0.00 | 0.00 | 62 | 1015.8 |
| 20260510090556 | 22 | 262 | 6.4 | 11.3 | 0.00 | 0.00 | 0.00 | 63 | 1015.8 |
| 20260510090057 | 22 | 269 | 6.4 | 11.3 | 0.00 | 0.00 | 0.00 | 62 | 1015.8 |
| 20260510085556 | 22 | 307 | 6.4 | 11.3 | 0.00 | 0.00 | 0.00 | 63 | 1015.8 |
| 20260510085050 | 22 | 259 | 6.4 | 11.3 | 0.00 | 0.00 | 0.00 | 62 | 1015.8 |
| 20260510084543 | 22 | 267 | 6.4 | 11.3 | 0.00 | 0.00 | 0.00 | 62 | 1015.9 |
| 20260510084037 | 22 | 299 | 4.8 | 11.3 | 0.00 | 0.00 | 0.00 | 62 | 1015.9 |
| 20260510083532 | 21 | 265 | 6.4 | 11.3 | 0.00 | 0.00 | 0.00 | 62 | 1015.9 |
| 20260510083026 | 21 | 244 | 6.4 | 11.3 | 0.00 | 0.00 | 0.00 | 63 | 1015.9 |
| 20260510082742 | 21 | 255 | 6.4 | 12.9 | 0.00 | 0.00 | 0.00 | 64 | 1015.8 |
| 20260510082013 | 21 | 236 | 6.4 | 12.9 | 0.00 | 0.00 | 0.00 | 65 | 1015.8 |
| 20260510081508 | 21 | 252 | 6.4 | 11.3 | 0.00 | 0.00 | 0.00 | 66 | 1015.7 |
| 20260510081227 | 21 | 252 | 6.4 | 11.3 | 0.00 | 0.00 | 0.00 | 67 | 1015.8 |
| 20260510080456 | 21 | 236 | 4.8 | 11.3 | 0.00 | 0.00 | 0.00 | 68 | 1015.8 |
| 20260510075951 | 21 | 296 | 4.8 | 11.3 | 0.00 | 0.00 | 0.00 | 67 | 1015.9 |
| 20260510075443 | 21 | 264 | 4.8 | 11.3 | 0.00 | 0.00 | 0.00 | 68 | 1016.0 |
| 20260510074937 | 21 | 248 | 6.4 | 9.7 | 0.00 | 0.00 | 0.00 | 69 | 1016.1 |
| 20260510074431 | 20 | 255 | 6.4 | 11.3 | 0.00 | 0.00 | 0.00 | 69 | 1016.2 |
| 20260510073926 | 20 | 238 | 4.8 | 11.3 | 0.00 | 0.00 | 0.00 | 68 | 1016.2 |
| 20260510073421 | 20 | 281 | 6.4 | 11.3 | 0.00 | 0.00 | 0.00 | 71 | 1016.2 |
| 20260510072914 | 20 | 303 | 6.4 | 12.9 | 0.00 | 0.00 | 0.00 | 71 | 1016.2 |
| 20260510072408 | 20 | 247 | 6.4 | 12.9 | 0.00 | 0.00 | 0.00 | 73 | 1016.2 |
| 20260510071901 | 20 | 279 | 6.4 | 12.9 | 0.00 | 0.00 | 0.00 | 73 | 1016.2 |
| 20260510071356 | 20 | 257 | 6.4 | 11.3 | 0.00 | 0.00 | 0.00 | 73 | 1016.3 |
| 20260510070849 | 19 | 281 | 6.4 | 11.3 | 0.00 | 0.00 | 0.00 | 74 | 1016.2 |
| 20260510070614 | 19 | 288 | 6.4 | 11.3 | 0.00 | 0.00 | 0.00 | 73 | 1016.1 |
| 20260510070058 | 19 | 299 | 8.0 | 11.3 | 0.00 | 0.00 | 0.00 | 74 | 1016.1 |
| 20260510065337 | 19 | 281 | 6.4 | 12.9 | 0.00 | 0.00 | 0.00 | 75 | 1016.1 |
| 20260510064821 | 19 | 289 | 4.8 | 12.9 | 0.00 | 0.00 | 0.00 | 76 | 1016.0 |
| 20260510064547 | 18 | 276 | 6.4 | 12.9 | 0.00 | 0.00 | 0.00 | 78 | 1015.9 |
| 20260510063809 | 18 | 277 | 4.8 | 9.7 | 0.00 | 0.00 | 0.00 | 78 | 1016.0 |
| 20260510063304 | 18 | 240 | 4.8 | 9.7 | 0.00 | 0.00 | 0.00 | 78 | 1016.0 |
| 20260510062758 | 18 | 298 | 6.4 | 9.7 | 0.00 | 0.00 | 0.00 | 80 | 1016.1 |
| 20260510062514 | 18 | 272 | 6.4 | 12.9 | 0.00 | 0.00 | 0.00 | 80 | 1016.1 |
| 20260510061746 | 18 | 285 | 6.4 | 12.9 | 0.00 | 0.00 | 0.00 | 80 | 1016.0 |
| 20260510061240 | 18 | 285 | 6.4 | 12.9 | 0.00 | 0.00 | 0.00 | 80 | 1016.1 |
| 20260510060734 | 17 | 268 | 6.4 | 12.9 | 0.00 | 0.00 | 0.00 | 81 | 1016.0 |
| 20260510060228 | 17 | 281 | 6.4 | 12.9 | 0.00 | 0.00 | 0.00 | 82 | 1015.9 |
| 20260510055721 | 17 | 275 | 6.4 | 12.9 | 0.00 | 0.00 | 0.00 | 81 | 1016.0 |
| 20260510055216 | 17 | 267 | 6.4 | 12.9 | 0.00 | 0.00 | 0.00 | 82 | 1016.0 |
| 20260510054711 | 17 | 264 | 4.8 | 11.3 | 0.00 | 0.00 | 0.00 | 84 | 1016.1 |
| 20260510054210 | 17 | 294 | 3.2 | 8.0 | 0.00 | 0.00 | 0.00 | 85 | 1016.1 |
| 20260510053710 | 17 | 274 | 3.2 | 8.0 | 0.00 | 0.00 | 0.00 | 87 | 1016.0 |
| 20260510053210 | 16 | 265 | 4.8 | 9.7 | 0.00 | 0.00 | 0.00 | 86 | 1015.9 |
| 20260510052710 | 16 | 264 | 3.2 | 9.7 | 0.00 | 0.00 | 0.00 | 87 | 1015.9 |
| 20260510052210 | 16 | 274 | 3.2 | 4.8 | 0.00 | 0.00 | 0.00 | 88 | 1015.8 |
| 20260510051708 | 16 | 274 | 3.2 | 6.4 | 0.00 | 0.00 | 0.00 | 88 | 1015.7 |
| 20260510051206 | 16 | 269 | 3.2 | 6.4 | 0.00 | 0.03 | 0.00 | 89 | 1015.7 |
| 20260510050705 | 16 | 269 | 3.2 | 6.4 | 0.00 | 0.03 | 0.00 | 89 | 1015.7 |
| 20260510050206 | 16 | 276 | 3.2 | 6.4 | 0.00 | 0.03 | 0.00 | 89 | 1015.8 |
| 20260510045929 | 16 | 306 | 3.2 | 6.4 | 0.00 | 0.03 | 0.00 | 89 | 1015.8 |
| 20260510045202 | 16 | 306 | 3.2 | 6.4 | 0.00 | 0.03 | 0.00 | 89 | 1015.7 |
| 20260510044702 | 16 | 299 | 1.6 | 6.4 | 0.00 | 0.03 | 0.00 | 91 | 1015.7 |
| 20260510044202 | 16 | 309 | 3.2 | 8.0 | 0.00 | 0.03 | 0.00 | 91 | 1015.8 |
| 20260510043659 | 16 | 321 | 4.8 | 8.0 | 0.00 | 0.03 | 0.00 | 91 | 1015.8 |
| 20260510043200 | 16 | 311 | 4.8 | 8.0 | 0.00 | 0.03 | 0.00 | 90 | 1015.8 |
| 20260510042917 | 16 | 316 | 3.2 | 8.0 | 0.00 | 0.03 | 0.00 | 90 | 1015.8 |
| 20260510042159 | 16 | 270 | 4.8 | 9.7 | 0.00 | 0.03 | 0.00 | 91 | 1015.8 |
| 20260510041700 | 16 | 274 | 4.8 | 9.7 | 0.00 | 0.03 | 0.00 | 90 | 1015.8 |
| 20260510041200 | 16 | 274 | 3.2 | 11.3 | 0.00 | 0.03 | 0.00 | 90 | 1015.8 |
| 20260510040658 | 16 | 275 | 3.2 | 11.3 | 0.00 | 0.03 | 0.00 | 90 | 1015.8 |
| 20260510040421 | 16 | 307 | 4.8 | 8.0 | 0.00 | 0.03 | 0.00 | 91 | 1015.7 |
| 20260510035656 | 16 | 300 | 4.8 | 8.0 | 0.00 | 0.03 | 0.00 | 91 | 1015.6 |
| 20260510035421 | 16 | 249 | 3.2 | 6.4 | 0.00 | 0.03 | 0.00 | 91 | 1015.5 |
| 20260510034655 | 16 | 269 | 3.2 | 6.4 | 0.00 | 0.03 | 0.00 | 91 | 1015.4 |
| 20260510034156 | 16 | 260 | 3.2 | 6.4 | 0.00 | 0.03 | 0.00 | 91 | 1015.3 |
| 20260510033656 | 16 | 250 | 3.2 | 6.4 | 0.00 | 0.03 | 0.00 | 91 | 1015.4 |
| 20260510033156 | 16 | 255 | 4.8 | 6.4 | 0.00 | 0.03 | 0.00 | 90 | 1015.2 |
| 20260510032654 | 16 | 255 | 4.8 | 8.0 | 0.00 | 0.03 | 0.00 | 90 | 1015.2 |
| 20260510032154 | 16 | 243 | 3.2 | 8.0 | 0.00 | 0.03 | 0.00 | 89 | 1015.2 |
| 20260510031654 | 16 | 256 | 3.2 | 4.8 | 0.00 | 0.03 | 0.00 | 89 | 1015.3 |
| 20260510031154 | 16 | 256 | 1.6 | 4.8 | 0.00 | 0.03 | 0.00 | 89 | 1015.2 |
| 20260510030654 | 16 | 256 | 1.6 | 3.2 | 0.00 | 0.03 | 0.00 | 90 | 1015.2 |
| 20260510030153 | 16 | 256 | 1.6 | 4.8 | 0.00 | 0.03 | 0.00 | 90 | 1015.2 |
| 20260510025651 | 16 | 256 | 1.6 | 4.8 | 0.00 | 0.03 | 0.00 | 91 | 1015.2 |
| 20260510025152 | 16 | 256 | 0.0 | 3.2 | 0.00 | 0.03 | 0.00 | 92 | 1015.2 |
| 20260510024652 | 16 | 256 | 0.0 | 1.6 | 0.00 | 0.03 | 0.00 | 92 | 1015.1 |
| 20260510024149 | 16 | 256 | 0.0 | 1.6 | 0.00 | 0.03 | 0.00 | 92 | 1015.1 |
| 20260510023649 | 16 | 256 | 0.0 | 1.6 | 0.00 | 0.03 | 0.00 | 93 | 1015.0 |
| 20260510023149 | 16 | 256 | 0.0 | 1.6 | 0.00 | 0.03 | 0.00 | 92 | 1015.0 |
| 20260510022650 | 16 | 256 | 0.0 | 1.6 | 0.00 | 0.03 | 0.00 | 92 | 1015.1 |
| 20260510022150 | 16 | 256 | 0.0 | 1.6 | 0.00 | 0.03 | 0.00 | 93 | 1015.1 |
| 20260510021650 | 16 | 256 | 0.0 | 1.6 | 0.00 | 0.03 | 0.00 | 93 | 1015.1 |
| 20260510021149 | 16 | 256 | 0.0 | 3.2 | 0.00 | 0.03 | 0.00 | 93 | 1015.0 |
| 20260510020650 | 16 | 256 | 1.6 | 4.8 | 0.00 | 0.03 | 0.00 | 92 | 1015.0 |
| 20260510020412 | 16 | 256 | 3.2 | 6.4 | 0.00 | 0.03 | 0.00 | 92 | 1015.1 |
| 20260510015903 | 16 | 256 | 4.8 | 8.0 | 0.00 | 0.03 | 0.00 | 92 | 1015.2 |
| 20260510015146 | 16 | 260 | 4.8 | 8.0 | 0.00 | 0.03 | 0.00 | 92 | 1015.1 |
| 20260510014908 | 16 | 258 | 3.2 | 8.0 | 0.00 | 0.03 | 0.00 | 91 | 1015.1 |
| 20260510014145 | 16 | 117 | 1.6 | 3.2 | 0.00 | 0.03 | 0.00 | 91 | 1015.1 |
| 20260510013908 | 16 | 117 | 0.0 | 3.2 | 0.00 | 0.03 | 0.00 | 91 | 1015.0 |
| 20260510013411 | 16 | 117 | 0.0 | 1.6 | 0.00 | 0.03 | 0.00 | 91 | 1015.1 |
| 20260510012646 | 16 | 117 | 0.0 | 0.0 | 0.00 | 0.03 | 0.00 | 90 | 1015.1 |
| 20260510012145 | 16 | 117 | 0.0 | 1.6 | 0.00 | 0.03 | 0.00 | 90 | 1015.1 |
| 20260510011638 | 16 | 117 | 0.0 | 1.6 | 0.00 | 0.03 | 0.00 | 90 | 1015.2 |
| 20260510011133 | 16 | 117 | 0.0 | 1.6 | 0.00 | 0.03 | 0.00 | 91 | 1015.2 |
| 20260510010627 | 16 | 117 | 0.0 | 0.0 | 0.00 | 0.03 | 0.00 | 91 | 1015.3 |
| 20260510010121 | 16 | 117 | 0.0 | 0.0 | 0.00 | 0.03 | 0.00 | 91 | 1015.3 |
| 20260510005621 | 16 | 117 | 0.0 | 0.0 | 0.00 | 0.03 | 0.00 | 90 | 1015.3 |
| 20260510005331 | 16 | 117 | 0.0 | 0.0 | 0.00 | 0.03 | 0.00 | 90 | 1015.3 |
| 20260510004603 | 16 | 117 | 0.0 | 1.6 | 0.00 | 0.03 | 0.00 | 90 | 1015.4 |
| 20260510004057 | 16 | 117 | 0.0 | 1.6 | 0.00 | 0.03 | 0.00 | 90 | 1015.4 |
| 20260510003550 | 16 | 117 | 0.0 | 1.6 | 0.00 | 0.03 | 0.00 | 90 | 1015.4 |
| 20260510003045 | 16 | 117 | 0.0 | 1.6 | 0.00 | 0.03 | 0.00 | 90 | 1015.4 |
| 20260510002539 | 16 | 117 | 0.0 | 1.6 | 0.00 | 0.03 | 0.00 | 90 | 1015.4 |
| 20260510002033 | 16 | 117 | 0.0 | 1.6 | 0.00 | 0.03 | 0.00 | 89 | 1015.4 |
| 20260510001527 | 16 | 117 | 0.0 | 1.6 | 0.00 | 0.03 | 0.00 | 90 | 1015.3 |
| 20260510001021 | 16 | 117 | 0.0 | 1.6 | 0.00 | 0.03 | 0.00 | 90 | 1015.4 |
| 20260510000738 | 16 | 117 | 0.0 | 1.6 | 0.00 | 0.03 | 0.00 | 90 | 1015.3 |
| 20260510000009 | 16 | 117 | 0.0 | 1.6 | 0.00 | 0.03 | 0.00 | 90 | 1015.4 |
| 20260509235726 | 16 | 117 | 0.0 | 1.6 | 0.00 | 0.03 | 0.00 | 90 | 1015.3 |
| 20260509234957 | 16 | 117 | 0.0 | 1.6 | 0.00 | 0.03 | 0.00 | 90 | 1015.3 |
| 20260509234451 | 16 | 117 | 0.0 | 1.6 | 0.00 | 0.03 | 0.00 | 90 | 1015.3 |
| 20260509233945 | 16 | 117 | 0.0 | 1.6 | 0.00 | 0.03 | 0.00 | 90 | 1015.4 |
| 20260509233439 | 16 | 117 | 0.0 | 1.6 | 0.00 | 0.03 | 0.00 | 90 | 1015.4 |
| 20260509232933 | 16 | 117 | 0.0 | 1.6 | 0.00 | 0.03 | 0.00 | 90 | 1015.4 |
| 20260509232427 | 16 | 117 | 0.0 | 1.6 | 0.00 | 0.03 | 0.00 | 90 | 1015.5 |
| 20260509231921 | 17 | 117 | 0.0 | 1.6 | 0.00 | 0.03 | 0.00 | 90 | 1015.6 |
| 20260509231415 | 17 | 117 | 0.0 | 1.6 | 0.00 | 0.03 | 0.00 | 90 | 1015.6 |
| 20260509230909 | 17 | 117 | 0.0 | 1.6 | 0.00 | 0.03 | 0.00 | 90 | 1015.7 |
| 20260509230403 | 17 | 117 | 0.0 | 1.6 | 0.00 | 0.03 | 0.00 | 90 | 1015.7 |
| 20260509225858 | 17 | 117 | 1.6 | 3.2 | 0.00 | 0.03 | 0.00 | 90 | 1015.7 |
| 20260509225351 | 17 | 117 | 1.6 | 3.2 | 0.00 | 0.03 | 0.00 | 90 | 1015.7 |
| 20260509224846 | 17 | 138 | 1.6 | 1.6 | 0.00 | 0.03 | 0.00 | 90 | 1015.7 |
| 20260509224339 | 17 | 137 | 0.0 | 1.6 | 0.00 | 0.03 | 0.00 | 90 | 1015.7 |
| 20260509223833 | 17 | 137 | 0.0 | 1.6 | 0.00 | 0.03 | 0.00 | 90 | 1015.7 |
| 20260509223326 | 17 | 137 | 0.0 | 1.6 | 0.00 | 0.03 | 0.00 | 90 | 1015.8 |
| 20260509222821 | 17 | 137 | 0.0 | 1.6 | 0.00 | 0.03 | 0.00 | 90 | 1015.8 |
| 20260509222321 | 17 | 137 | 0.0 | 1.6 | 0.00 | 0.03 | 0.00 | 90 | 1015.8 |
| 20260509221821 | 17 | 138 | 0.0 | 1.6 | 0.00 | 0.03 | 0.00 | 91 | 1015.7 |
| 20260509221321 | 17 | 138 | 0.0 | 1.6 | 0.00 | 0.03 | 0.00 | 90 | 1015.7 |
| 20260509220821 | 17 | 138 | 0.0 | 1.6 | 0.00 | 0.03 | 0.00 | 91 | 1015.7 |
| 20260509220544 | 17 | 138 | 1.6 | 1.6 | 0.00 | 0.03 | 0.00 | 91 | 1015.8 |
| 20260509215820 | 17 | 137 | 0.0 | 1.6 | 0.00 | 0.03 | 0.00 | 91 | 1015.7 |
| 20260509215319 | 17 | 137 | 0.0 | 1.6 | 0.00 | 0.03 | 0.00 | 91 | 1015.8 |
| 20260509214824 | 17 | 137 | 0.0 | 1.6 | 0.00 | 0.03 | 0.00 | 91 | 1015.9 |
| 20260509214540 | 17 | 137 | 0.0 | 1.6 | 0.00 | 0.03 | 0.00 | 90 | 1015.9 |
| 20260509213819 | 17 | 138 | 0.0 | 1.6 | 0.00 | 0.03 | 0.00 | 91 | 1015.9 |
| 20260509213317 | 17 | 137 | 0.0 | 1.6 | 0.00 | 0.03 | 0.00 | 91 | 1016.0 |
| 20260509212816 | 17 | 138 | 0.0 | 1.6 | 0.00 | 0.03 | 0.00 | 91 | 1015.9 |
| 20260509212313 | 17 | 137 | 0.0 | 1.6 | 0.00 | 0.03 | 0.00 | 91 | 1016.0 |
| 20260509211814 | 17 | 137 | 0.0 | 1.6 | 0.00 | 0.03 | 0.00 | 91 | 1015.9 |
| 20260509211536 | 17 | 137 | 0.0 | 1.6 | 0.00 | 0.03 | 0.00 | 91 | 1015.9 |
| 20260509210813 | 17 | 138 | 0.0 | 1.6 | 0.00 | 0.03 | 0.00 | 91 | 1015.9 |
| 20260509210313 | 17 | 137 | 0.0 | 3.2 | 0.00 | 0.03 | 0.00 | 91 | 1015.9 |
| 20260509205813 | 17 | 138 | 0.0 | 3.2 | 0.00 | 0.03 | 0.03 | 91 | 1015.9 |
| 20260509205307 | 17 | 138 | 0.0 | 3.2 | 0.00 | 0.03 | 0.03 | 91 | 1015.8 |
| 20260509204802 | 17 | 149 | 0.0 | 3.2 | 0.00 | 0.03 | 0.03 | 91 | 1015.7 |
| 20260509204254 | 17 | 207 | 0.0 | 3.2 | 0.00 | 0.03 | 0.03 | 91 | 1015.6 |
| 20260509203749 | 17 | 207 | 1.6 | 4.8 | 0.00 | 0.03 | 0.03 | 91 | 1015.7 |
| 20260509203243 | 17 | 259 | 1.6 | 4.8 | 0.00 | 0.03 | 0.03 | 91 | 1015.7 |
| 20260509202737 | 18 | 208 | 0.0 | 3.2 | 0.00 | 0.03 | 0.03 | 91 | 1015.6 |
| 20260509202231 | 18 | 208 | 1.6 | 4.8 | 0.00 | 0.03 | 0.03 | 91 | 1015.6 |
| 20260509201725 | 18 | 208 | 1.6 | 4.8 | 0.00 | 0.03 | 0.03 | 90 | 1015.6 |
| 20260509201218 | 18 | 205 | 1.6 | 6.4 | 0.00 | 0.03 | 0.03 | 90 | 1015.6 |
| 20260509200712 | 18 | 207 | 1.6 | 6.4 | 0.00 | 0.03 | 0.03 | 90 | 1015.6 |
| 20260509200207 | 17 | 224 | 0.0 | 1.6 | 0.00 | 0.03 | 0.03 | 90 | 1015.5 |
| 20260509195700 | 17 | 224 | 0.0 | 0.0 | 0.00 | 0.03 | 0.03 | 89 | 1015.4 |
| 20260509195155 | 18 | 224 | 0.0 | 0.0 | 0.00 | 0.03 | 0.03 | 89 | 1015.4 |
| 20260509194649 | 18 | 224 | 0.0 | 0.0 | 0.00 | 0.03 | 0.03 | 88 | 1015.3 |
| 20260509194413 | 18 | 224 | 0.0 | 0.0 | 0.00 | 0.03 | 0.03 | 88 | 1015.4 |
| 20260509193637 | 18 | 224 | 0.0 | 1.6 | 0.00 | 0.03 | 0.03 | 88 | 1015.4 |
| 20260509193131 | 18 | 224 | 0.0 | 1.6 | 0.00 | 0.03 | 0.03 | 88 | 1015.5 |
| 20260509192625 | 18 | 224 | 0.0 | 1.6 | 0.00 | 0.03 | 0.03 | 88 | 1015.4 |
| 20260509192119 | 18 | 224 | 0.0 | 1.6 | 0.00 | 0.03 | 0.03 | 88 | 1015.4 |
| 20260509191613 | 18 | 224 | 0.0 | 1.6 | 0.00 | 0.03 | 0.03 | 88 | 1015.3 |
| 20260509191107 | 18 | 224 | 0.0 | 1.6 | 0.00 | 0.03 | 0.03 | 88 | 1015.4 |
| 20260509190601 | 18 | 224 | 0.0 | 1.6 | 0.00 | 0.03 | 0.03 | 89 | 1015.3 |
| 20260509190322 | 18 | 224 | 0.0 | 1.6 | 0.00 | 0.03 | 0.03 | 88 | 1015.3 |